Time;durP1;ratioP1;P1;durP2;ratioP2;P2;SDS_P1;SDS_P2;PMS_P1;PMS_P2;Temp;Humidity;BMP_temperature;BMP_pressure;BME280_temperature;BME280_humidity;BME280_pressure;Samples;Min_cycle;Max_cycle;Signal;HPM_P1;HPM_P2
2022/09/07 00:02:00;;;;;;;7.13;4.05;;;;;;;16.32;84.36;95296.84;5077317;28;20181;-75
2022/09/07 00:04:26;;;;;;;9.35;3.78;;;;;;;16.44;84.37;95321.53;5070717;28;20178;-75
2022/09/07 00:06:51;;;;;;;5.85;3.72;;;;;;;16.33;84.88;95323.19;5087610;28;20170;-75
2022/09/07 00:09:17;;;;;;;5.13;3.72;;;;;;;16.33;85.03;95328.50;5061246;28;20190;-75
2022/09/07 00:11:42;;;;;;;6.10;4.10;;;;;;;16.39;84.84;95324.09;5070539;28;20205;-75
2022/09/07 00:14:08;;;;;;;6.40;3.95;;;;;;;16.30;84.53;95307.72;5071224;28;20167;-75
2022/09/07 00:16:33;;;;;;;6.07;4.03;;;;;;;16.41;84.52;95324.69;5075232;28;20174;-75
2022/09/07 00:19:02;;;;;;;5.50;4.13;;;;;;;16.31;84.52;95305.88;5074832;28;21020;-75
2022/09/07 00:21:28;;;;;;;6.85;4.35;;;;;;;16.30;84.37;95302.41;5089680;28;20173;-75
2022/09/07 00:23:54;;;;;;;6.60;4.10;;;;;;;16.46;84.29;95322.13;5094809;28;20215;-75
2022/09/07 00:26:23;;;;;;;5.28;3.60;;;;;;;16.39;84.29;95322.25;5090196;28;20182;-75
2022/09/07 00:28:49;;;;;;;6.95;3.80;;;;;;;16.41;84.11;95322.03;5074868;28;20186;-76
2022/09/07 00:31:18;;;;;;;8.40;4.88;;;;;;;16.44;84.15;95327.66;5074782;28;20189;-76
2022/09/07 00:33:45;;;;;;;4.53;3.95;;;;;;;16.48;83.90;95322.69;5074836;28;20182;-75
2022/09/07 00:36:10;;;;;;;27.80;20.55;;;;;;;16.44;83.59;95319.69;5083905;28;20218;-75
2022/09/07 00:38:36;;;;;;;17.98;9.63;;;;;;;16.51;82.89;95322.22;5095140;28;20858;-75
2022/09/07 00:41:02;;;;;;;47.47;32.95;;;;;;;16.32;82.72;95294.19;5094572;28;20242;-76
2022/09/07 00:43:53;;;;;;;42.17;29.25;;;;;;;16.32;83.22;95324.25;5094475;28;20272;-76
2022/09/07 00:46:21;;;;;;;15.57;11.60;;;;;;;16.34;83.05;95321.34;5094761;28;20177;-76
2022/09/07 00:48:49;;;;;;;11.77;7.25;;;;;;;16.31;82.83;95324.47;5094385;28;20272;-75
2022/09/07 00:51:20;;;;;;;9.05;6.30;;;;;;;16.28;82.99;95323.06;5094292;28;20172;-75
2022/09/07 00:53:54;;;;;;;9.15;7.05;;;;;;;16.23;83.00;95320.34;5094296;28;20637;-75
2022/09/07 00:56:22;;;;;;;11.45;6.95;;;;;;;16.12;83.44;95316.66;5094262;28;20621;-75
2022/09/07 00:58:48;;;;;;;8.55;6.55;;;;;;;16.15;83.71;95320.69;5094584;28;20584;-75
2022/09/07 01:01:16;;;;;;;9.68;6.32;;;;;;;16.18;83.50;95321.00;5094040;28;20253;-75
2022/09/07 01:03:48;;;;;;;6.88;5.60;;;;;;;16.15;83.43;95313.53;5094061;28;20693;-75
2022/09/07 01:06:20;;;;;;;10.98;7.00;;;;;;;16.12;83.55;95316.66;5076911;28;20197;-75
2022/09/07 01:08:48;;;;;;;11.65;7.40;;;;;;;15.90;83.48;95281.13;5093978;28;20174;-75
2022/09/07 01:11:16;;;;;;;13.10;6.47;;;;;;;15.97;83.45;95289.78;5093961;28;20231;-75
2022/09/07 01:13:43;;;;;;;11.90;7.65;;;;;;;16.05;83.44;95302.69;5093925;28;20260;-75
2022/09/07 01:16:23;;;;;;;11.82;6.57;;;;;;;16.00;83.82;95307.88;5093954;28;20672;-75
2022/09/07 01:18:49;;;;;;;7.32;5.68;;;;;;;15.94;84.14;95308.81;5093657;28;20607;-75
2022/09/07 01:21:39;;;;;;;11.45;5.70;;;;;;;15.93;84.38;95307.19;5093823;28;20182;-75
2022/09/07 01:24:27;;;;;;;9.07;5.18;;;;;;;15.90;83.95;95312.19;5093748;28;20288;-75
2022/09/07 01:27:20;;;;;;;9.00;5.28;;;;;;;15.77;83.99;95310.56;5092402;28;20536;-76
2022/09/07 01:30:07;;;;;;;10.23;5.47;;;;;;;15.60;84.46;95281.25;5093745;28;20200;-75
2022/09/07 01:32:59;;;;;;;8.48;5.53;;;;;;;15.73;84.71;95307.56;5093337;28;20630;-75
2022/09/07 01:35:46;;;;;;;10.60;5.60;;;;;;;15.75;84.54;95302.81;5093133;28;20229;-75
2022/09/07 01:38:28;;;;;;;8.07;5.68;;;;;;;15.78;84.56;95298.91;5093579;28;20266;-75
2022/09/07 01:41:03;;;;;;;9.82;5.55;;;;;;;15.77;84.42;95306.06;5093828;28;20181;-76
2022/09/07 01:43:44;;;;;;;9.85;5.80;;;;;;;15.43;84.37;95259.88;5093531;28;20570;-76
2022/09/07 01:46:25;;;;;;;6.85;5.32;;;;;;;15.71;84.48;95301.69;5093426;28;20177;-75
2022/09/07 01:48:54;;;;;;;11.32;5.55;;;;;;;15.71;84.36;95314.97;5093196;28;20173;-76
2022/09/07 01:51:21;;;;;;;6.82;4.90;;;;;;;15.55;84.19;95289.09;5093144;28;20169;-76
2022/09/07 01:53:58;;;;;;;6.43;5.13;;;;;;;15.69;83.95;95305.59;5093270;28;20239;-75
2022/09/07 01:56:32;;;;;;;7.00;5.25;;;;;;;15.68;84.52;95302.13;5093343;28;20256;-76
2022/09/07 01:59:19;;;;;;;9.23;4.80;;;;;;;15.61;84.55;95298.78;5092975;28;20165;-76
2022/09/07 02:01:51;;;;;;;14.35;4.68;;;;;;;15.58;84.41;95306.41;5093153;28;20224;-76
2022/09/07 02:04:22;;;;;;;7.18;4.45;;;;;;;15.38;85.01;95304.88;5092889;28;20250;-76
2022/09/07 02:06:55;;;;;;;8.35;4.80;;;;;;;15.38;85.42;95302.22;5093250;28;20189;-76
2022/09/07 02:09:43;;;;;;;7.47;4.70;;;;;;;15.35;85.27;95297.38;5092731;28;20174;-76
2022/09/07 02:12:28;;;;;;;10.30;5.05;;;;;;;15.30;85.29;95296.44;5081196;28;20197;-76
2022/09/07 02:15:10;;;;;;;11.52;4.80;;;;;;;15.35;85.29;95297.38;5092143;28;20373;-76
2022/09/07 02:17:41;;;;;;;8.07;4.25;;;;;;;15.19;85.20;95273.34;5093041;28;20173;-77
2022/09/07 02:20:12;;;;;;;10.02;5.47;;;;;;;15.30;85.31;95294.59;5092469;28;20648;-76
2022/09/07 02:22:43;;;;;;;6.22;4.25;;;;;;;15.26;85.24;95296.09;5092479;28;20617;-76
2022/09/07 02:25:13;;;;;;;6.13;4.20;;;;;;;15.22;85.14;95302.09;5084394;28;20173;-76
2022/09/07 02:27:46;;;;;;;6.45;4.53;;;;;;;15.20;85.80;95302.31;5092659;28;20256;-76
2022/09/07 02:30:12;;;;;;;6.00;4.23;;;;;;;15.22;85.27;95300.22;5092119;28;20177;-76
2022/09/07 02:32:38;;;;;;;6.63;4.33;;;;;;;15.09;85.40;95287.19;5092500;28;20668;-76
2022/09/07 02:35:05;;;;;;;5.82;4.30;;;;;;;15.20;85.21;95293.53;5092241;28;20180;-76
2022/09/07 02:37:32;;;;;;;10.20;4.47;;;;;;;15.19;85.35;95286.63;5091874;28;20185;-76
2022/09/07 02:39:59;;;;;;;5.40;3.70;;;;;;;15.18;85.46;95285.81;5092103;28;20181;-76
2022/09/07 02:42:27;;;;;;;9.85;4.18;;;;;;;15.12;85.24;95292.03;5092158;28;20200;-76
2022/09/07 02:44:53;;;;;;;4.78;3.92;;;;;;;14.97;85.56;95268.59;5092184;28;20169;-76
2022/09/07 02:47:37;;;;;;;6.47;3.90;;;;;;;15.08;85.65;95293.50;5092198;28;20578;-76
2022/09/07 02:50:36;;;;;;;7.70;4.63;;;;;;;15.03;85.68;95293.41;5092030;28;20230;-76
2022/09/07 02:53:21;;;;;;;4.63;3.90;;;;;;;15.05;85.69;95288.66;5091842;28;20185;-76
2022/09/07 02:56:05;;;;;;;7.60;4.20;;;;;;;15.00;85.89;95293.84;5091978;28;20260;-76
2022/09/07 02:58:50;;;;;;;7.30;3.90;;;;;;;14.89;85.45;95297.25;5083876;28;20224;-76
2022/09/07 03:01:37;;;;;;;10.07;4.00;;;;;;;14.82;86.23;95300.00;5091637;28;20188;-76
2022/09/07 03:04:31;;;;;;;12.60;4.27;;;;;;;14.82;86.28;95304.50;5085033;28;20198;-76
2022/09/07 03:07:26;;;;;;;9.57;3.50;;;;;;;14.80;86.16;95293.31;5091772;28;20224;-76
2022/09/07 03:09:56;;;;;;;9.53;4.37;;;;;;;14.89;85.87;95302.56;5089780;28;20565;-76
2022/09/07 03:12:21;;;;;;;5.30;3.70;;;;;;;14.80;85.57;95280.88;5091584;28;20181;-76
2022/09/07 03:14:47;;;;;;;8.32;4.22;;;;;;;14.98;85.19;95301.22;5091660;28;20231;-76
2022/09/07 03:17:13;;;;;;;9.07;3.70;;;;;;;15.01;85.15;95308.72;5091467;28;20173;-76
2022/09/07 03:19:39;;;;;;;8.63;4.63;;;;;;;15.01;84.89;95298.13;5091143;28;20177;-76
2022/09/07 03:22:05;;;;;;;4.67;3.50;;;;;;;15.03;84.76;95298.69;5091229;28;20177;-76
2022/09/07 03:24:30;;;;;;;6.50;4.23;;;;;;;15.02;84.50;95307.69;5073233;28;20955;-76
2022/09/07 03:26:56;;;;;;;5.63;4.10;;;;;;;15.01;84.50;95298.13;5091068;28;20227;-77
2022/09/07 03:29:21;;;;;;;12.85;4.50;;;;;;;15.00;84.53;95305.25;5091044;28;20674;-76
2022/09/07 03:31:47;;;;;;;4.70;3.97;;;;;;;15.00;84.62;95315.06;5090852;28;20200;-76
2022/09/07 03:34:13;;;;;;;8.33;4.63;;;;;;;14.96;84.63;95308.59;5091065;28;20178;-77
2022/09/07 03:36:39;;;;;;;8.37;4.30;;;;;;;14.89;84.27;95315.81;5090432;28;20718;-76
2022/09/07 03:39:06;;;;;;;8.83;4.13;;;;;;;14.80;85.04;95311.88;5071188;28;20190;-76
2022/09/07 03:41:31;;;;;;;5.77;4.00;;;;;;;14.72;85.56;95313.81;5068804;28;20181;-76
2022/09/07 03:44:01;;;;;;;8.63;4.13;;;;;;;14.65;86.20;95314.94;5077613;28;20591;-76
2022/09/07 03:46:27;;;;;;;9.90;3.97;;;;;;;14.67;86.01;95315.53;5079405;28;20232;-76
2022/09/07 03:48:52;;;;;;;8.77;4.57;;;;;;;14.71;85.78;95317.50;5079247;28;20173;-76
2022/09/07 03:51:18;;;;;;;8.33;4.40;;;;;;;14.70;86.04;95310.56;5081198;28;20702;-75
2022/09/07 03:53:45;;;;;;;6.47;4.10;;;;;;;14.68;85.48;95312.66;5075597;28;20729;-75
2022/09/07 03:56:18;;;;;;;10.63;4.70;;;;;;;14.68;85.80;95319.81;5067047;28;20186;-75
2022/09/07 03:58:45;;;;;;;7.00;4.83;;;;;;;14.68;85.74;95317.97;5065307;28;20240;-75
2022/09/07 04:01:19;;;;;;;11.77;4.20;;;;;;;14.61;85.92;95319.88;5063324;28;20178;-75
2022/09/07 04:03:45;;;;;;;6.20;4.10;;;;;;;14.57;85.74;95316.06;5065283;28;20208;-76
2022/09/07 04:06:11;;;;;;;10.30;5.33;;;;;;;14.57;86.17;95317.91;5064697;28;20182;-75
2022/09/07 04:08:39;;;;;;;8.33;4.90;;;;;;;14.56;86.28;95326.88;5073522;28;20193;-77
2022/09/07 04:11:06;;;;;;;10.60;4.70;;;;;;;14.56;86.44;95321.56;5075172;28;20178;-77
2022/09/07 04:13:34;;;;;;;12.47;4.73;;;;;;;14.58;86.40;95322.16;5075332;28;20236;-76
2022/09/07 04:16:07;;;;;;;17.73;5.00;;;;;;;14.57;86.35;95318.72;5075149;28;20657;-77
2022/09/07 04:18:35;;;;;;;9.07;4.43;;;;;;;14.64;86.53;95331.88;5072132;28;20178;-77
2022/09/07 04:21:00;;;;;;;11.17;5.10;;;;;;;14.49;86.25;95297.00;5075695;28;20249;-79
2022/09/07 04:23:26;;;;;;;6.03;4.27;;;;;;;14.66;86.41;95329.81;5072153;28;20665;-77
2022/09/07 04:25:51;;;;;;;9.73;5.40;;;;;;;14.57;86.61;95328.50;5070852;28;20617;-79
2022/09/07 04:28:19;;;;;;;7.30;5.00;;;;;;;14.45;86.96;95319.66;5086236;28;20193;-83
2022/09/07 04:30:44;;;;;;;11.37;4.90;;;;;;;14.61;87.04;95327.84;5082673;28;20182;-79
2022/09/07 04:33:10;;;;;;;15.73;4.87;;;;;;;14.48;87.03;95298.84;5082701;28;20180;-78
2022/09/07 04:35:39;;;;;;;11.70;5.53;;;;;;;14.57;87.16;95325.84;5080668;28;20224;-78
2022/09/07 04:38:06;;;;;;;18.47;5.47;;;;;;;14.58;88.06;95327.47;5091452;28;20252;-78
2022/09/07 04:40:32;;;;;;;16.13;5.50;;;;;;;14.69;87.50;95330.19;5091188;28;20182;-78
2022/09/07 04:42:57;;;;;;;9.00;5.30;;;;;;;14.77;87.48;95330.91;5091552;28;20216;-78
2022/09/07 04:45:23;;;;;;;19.07;5.73;;;;;;;14.72;87.32;95324.41;5088762;28;20177;-78
2022/09/07 04:47:49;;;;;;;11.40;5.23;;;;;;;14.89;87.59;95339.69;5091623;28;20177;-78
2022/09/07 04:50:16;;;;;;;15.43;5.90;;;;;;;14.97;87.81;95342.81;5091256;28;20190;-78
2022/09/07 04:52:43;;;;;;;14.37;5.70;;;;;;;14.75;87.05;95288.72;5091456;28;20200;-78
2022/09/07 04:55:09;;;;;;;9.27;5.20;;;;;;;15.07;86.72;95339.63;5091514;28;20166;-78
2022/09/07 04:57:34;;;;;;;12.13;5.80;;;;;;;15.19;86.65;95335.16;5091627;28;20258;-78
2022/09/07 05:00:00;;;;;;;20.53;6.93;;;;;;;15.63;86.30;95347.16;5091952;28;20699;-78
2022/09/07 05:02:25;;;;;;;15.80;5.40;;;;;;;16.14;83.58;95350.94;5094778;28;20177;-78
2022/09/07 05:04:51;;;;;;;10.15;5.30;;;;;;;16.59;82.14;95349.25;5076732;28;20265;-77
2022/09/07 05:07:16;;;;;;;11.68;4.95;;;;;;;17.08;79.47;95362.97;5094456;28;20314;-77
2022/09/07 05:09:42;;;;;;;6.07;4.40;;;;;;;17.58;77.86;95365.69;5093857;28;20185;-78
2022/09/07 05:12:07;;;;;;;8.23;4.20;;;;;;;18.01;75.95;95359.72;5093772;28;20177;-77
2022/09/07 05:14:33;;;;;;;7.25;4.07;;;;;;;18.37;73.56;95365.53;5093827;28;20632;-78
2022/09/07 05:16:59;;;;;;;6.78;3.33;;;;;;;18.74;71.16;95369.25;5093278;28;20182;-78
2022/09/07 05:19:24;;;;;;;12.75;3.97;;;;;;;19.08;68.64;95369.91;5093962;28;20182;-78
2022/09/07 05:21:50;;;;;;;4.85;3.28;;;;;;;19.27;67.43;95361.56;5094284;28;20176;-78
2022/09/07 05:24:15;;;;;;;5.60;3.40;;;;;;;19.46;66.25;95379.63;5094687;28;20342;-78
2022/09/07 05:26:41;;;;;;;6.72;3.45;;;;;;;19.65;65.76;95366.72;5094730;28;20184;-76
2022/09/07 05:29:06;;;;;;;14.63;3.70;;;;;;;19.69;65.61;95333.09;5094769;28;20652;-76
2022/09/07 05:31:32;;;;;;;6.88;3.47;;;;;;;20.05;64.83;95358.22;5094336;28;20188;-76
2022/09/07 05:33:58;;;;;;;13.38;3.58;;;;;;;20.19;64.03;95361.25;5094344;28;20196;-76
2022/09/07 05:36:25;;;;;;;7.47;3.67;;;;;;;20.24;64.27;95366.59;5094029;28;20228;-76
2022/09/07 05:38:52;;;;;;;5.05;3.60;;;;;;;20.33;64.52;95370.41;5074443;28;20269;-76
2022/09/07 05:41:20;;;;;;;10.77;3.70;;;;;;;20.53;63.43;95367.06;5078331;28;20181;-76
2022/09/07 05:43:47;;;;;;;5.43;3.90;;;;;;;20.51;62.74;95371.88;5078152;28;20237;-76
2022/09/07 05:46:13;;;;;;;11.93;4.05;;;;;;;20.39;63.67;95365.94;5073813;28;20229;-76
2022/09/07 05:48:39;;;;;;;12.10;3.85;;;;;;;20.57;62.25;95354.81;5072994;28;20190;-72
2022/09/07 05:51:04;;;;;;;16.23;4.55;;;;;;;20.49;61.81;95336.56;5072641;28;20182;-75
2022/09/07 05:53:33;;;;;;;10.60;4.00;;;;;;;20.46;63.04;95355.81;5072770;28;20174;-75
2022/09/07 05:55:59;;;;;;;10.45;4.18;;;;;;;20.47;61.92;95355.56;5072656;28;20182;-75
2022/09/07 05:58:26;;;;;;;9.05;3.63;;;;;;;20.54;62.25;95364.16;5071769;28;20212;-75
2022/09/07 06:00:51;;;;;;;7.35;3.65;;;;;;;20.81;61.26;95358.63;5087271;28;20181;-73
2022/09/07 06:03:17;;;;;;;7.10;3.90;;;;;;;20.85;59.44;95358.91;5092512;28;20593;-75
2022/09/07 06:05:42;;;;;;;5.20;3.53;;;;;;;21.02;61.01;95357.63;5072965;28;20269;-75
2022/09/07 06:08:08;;;;;;;6.78;3.72;;;;;;;21.35;60.65;95372.47;5072396;28;20183;-75
2022/09/07 06:10:35;;;;;;;12.70;3.92;;;;;;;21.46;58.22;95360.69;5072413;28;20174;-75
2022/09/07 06:13:01;;;;;;;5.60;3.13;;;;;;;21.41;57.35;95362.56;5071535;28;20179;-75
2022/09/07 06:15:27;;;;;;;3.42;2.60;;;;;;;21.46;56.52;95371.41;5072083;28;20206;-75
2022/09/07 06:17:52;;;;;;;6.75;3.42;;;;;;;21.31;57.21;95368.72;5072132;28;20265;-75
2022/09/07 06:20:18;;;;;;;6.22;3.10;;;;;;;21.27;56.96;95359.63;5072346;28;20257;-75
2022/09/07 06:22:45;;;;;;;6.50;3.58;;;;;;;21.49;57.11;95355.88;5089455;28;20190;-75
2022/09/07 06:25:10;;;;;;;5.07;3.45;;;;;;;21.42;57.75;95353.47;5089493;28;20185;-75
2022/09/07 06:27:36;;;;;;;3.20;2.40;;;;;;;21.78;55.28;95368.50;5072152;28;20550;-75
2022/09/07 06:30:01;;;;;;;4.40;2.25;;;;;;;22.12;52.94;95368.78;5071420;28;20579;-75
2022/09/07 06:32:27;;;;;;;5.30;2.25;;;;;;;22.58;53.48;95368.66;5072432;28;20959;-76
2022/09/07 06:34:52;;;;;;;5.57;2.03;;;;;;;23.00;51.49;95362.91;5071641;28;20158;-75
2022/09/07 06:37:18;;;;;;;3.35;2.05;;;;;;;23.43;50.87;95366.69;5088136;28;20374;-75
2022/09/07 06:39:43;;;;;;;5.43;3.40;;;;;;;23.55;49.57;95372.53;5092072;28;20173;-76
2022/09/07 06:42:08;;;;;;;5.43;2.42;;;;;;;23.70;49.46;95368.94;5092117;28;20538;-76
2022/09/07 06:44:34;;;;;;;11.43;4.05;;;;;;;23.90;50.34;95368.78;5091533;28;20197;-76
2022/09/07 06:47:00;;;;;;;7.18;2.78;;;;;;;24.21;49.74;95363.19;5091703;28;20165;-76
2022/09/07 06:49:25;;;;;;;5.80;2.60;;;;;;;23.81;47.16;95375.06;5091948;28;20196;-75
2022/09/07 06:51:51;;;;;;;9.07;3.05;;;;;;;23.79;49.43;95371.81;5091490;28;20267;-75
2022/09/07 06:54:16;;;;;;;3.72;2.60;;;;;;;24.05;50.07;95378.59;5091770;28;20208;-76
2022/09/07 06:56:42;;;;;;;6.90;3.85;;;;;;;24.33;48.75;95379.72;5091650;28;20166;-75
2022/09/07 06:59:08;;;;;;;5.07;2.17;;;;;;;24.22;48.63;95343.22;5091522;28;20208;-76
2022/09/07 07:01:33;;;;;;;8.43;2.85;;;;;;;24.54;48.19;95380.34;5091234;28;20722;-76
2022/09/07 07:04:00;;;;;;;7.30;2.95;;;;;;;24.63;45.48;95384.81;5091479;28;20208;-76
2022/09/07 07:06:33;;;;;;;3.97;2.70;;;;;;;24.80;46.16;95371.69;5091525;28;20182;-76
2022/09/07 07:08:59;;;;;;;3.88;2.00;;;;;;;24.94;44.23;95374.50;5091446;28;20220;-76
2022/09/07 07:11:24;;;;;;;4.43;1.98;;;;;;;25.06;44.35;95382.19;5090933;28;20270;-76
2022/09/07 07:13:50;;;;;;;4.22;2.70;;;;;;;25.03;45.07;95378.16;5091100;28;20184;-73
2022/09/07 07:16:15;;;;;;;4.43;2.17;;;;;;;24.72;45.79;95379.59;5091108;28;20230;-74
2022/09/07 07:18:42;;;;;;;4.90;2.80;;;;;;;24.96;45.65;95380.41;5073461;28;20560;-75
2022/09/07 07:21:13;;;;;;;3.88;1.75;;;;;;;25.28;43.54;95376.22;5074164;28;20307;-75
2022/09/07 07:23:39;;;;;;;4.47;1.98;;;;;;;25.36;43.69;95362.09;5091236;28;20697;-76
2022/09/07 07:26:11;;;;;;;4.18;2.05;;;;;;;25.45;43.10;95371.13;5091714;28;20169;-74
2022/09/07 07:28:37;;;;;;;7.28;2.10;;;;;;;25.37;43.04;95379.88;5091639;28;20177;-75
2022/09/07 07:31:05;;;;;;;4.38;2.22;;;;;;;25.48;43.47;95382.16;5092115;28;20637;-78
2022/09/07 07:33:33;;;;;;;4.97;2.38;;;;;;;25.39;43.75;95385.78;5091405;28;20582;-76
2022/09/07 07:36:14;;;;;;;4.40;1.98;;;;;;;24.95;44.18;95383.41;5091065;28;20654;-76
2022/09/07 07:38:44;;;;;;;3.15;2.13;;;;;;;24.26;47.11;95385.44;5090813;28;20228;-75
2022/09/07 07:41:11;;;;;;;2.75;2.47;;;;;;;24.75;47.10;95384.41;5091255;28;20666;-78
2022/09/07 07:43:36;;;;;;;5.00;2.42;;;;;;;25.05;46.02;95383.28;5090966;28;20248;-76
2022/09/07 07:46:02;;;;;;;3.92;2.00;;;;;;;25.49;45.91;95378.38;5082110;28;20198;-76
2022/09/07 07:48:30;;;;;;;11.70;2.58;;;;;;;25.65;45.32;95378.97;5084530;28;20640;-76
2022/09/07 07:50:59;;;;;;;3.63;2.63;;;;;;;26.05;45.16;95379.41;5055003;28;20196;-76
2022/09/07 07:53:26;;;;;;;5.97;1.90;;;;;;;26.53;43.56;95380.78;5069384;28;20176;-76
2022/09/07 07:55:52;;;;;;;3.95;2.20;;;;;;;26.90;43.15;95384.38;5071775;28;20268;-76
2022/09/07 07:58:18;;;;;;;4.60;1.90;;;;;;;26.86;41.21;95361.78;5069109;28;20260;-78
2022/09/07 08:00:44;;;;;;;5.88;2.42;;;;;;;26.77;42.96;95386.00;5069298;28;20734;-76
2022/09/07 08:03:09;;;;;;;4.13;2.10;;;;;;;26.37;43.04;95382.16;5070922;28;20862;-77
2022/09/07 08:05:36;;;;;;;3.80;2.33;;;;;;;26.50;43.99;95384.06;5070049;28;20196;-76
2022/09/07 08:08:02;;;;;;;4.47;2.33;;;;;;;26.07;43.37;95377.22;5073199;28;20267;-74
2022/09/07 08:10:29;;;;;;;5.28;2.42;;;;;;;25.68;45.83;95375.69;5070653;28;20278;-73
2022/09/07 08:12:55;;;;;;;4.63;2.05;;;;;;;25.78;46.11;95374.72;5072031;28;20181;-74
2022/09/07 08:15:21;;;;;;;8.95;2.65;;;;;;;26.06;45.48;95379.13;5056326;28;20174;-73
2022/09/07 08:17:47;;;;;;;7.18;2.80;;;;;;;26.55;44.61;95380.47;5073576;28;20563;-74
2022/09/07 08:20:13;;;;;;;7.90;2.13;;;;;;;26.72;41.63;95377.19;5072626;28;20166;-74
2022/09/07 08:22:39;;;;;;;4.07;1.95;;;;;;;26.79;43.01;95383.78;5076397;28;20270;-74
2022/09/07 08:25:05;;;;;;;5.45;2.30;;;;;;;26.66;44.05;95377.28;5084310;28;20658;-74
2022/09/07 08:27:32;;;;;;;4.28;2.30;;;;;;;26.96;41.56;95375.13;5074019;28;20227;-74
2022/09/07 08:29:57;;;;;;;5.22;2.22;;;;;;;27.05;42.13;95354.38;5090442;28;20176;-76
2022/09/07 08:32:23;;;;;;;4.95;2.13;;;;;;;27.47;41.45;95371.31;5090417;28;20178;-77
2022/09/07 08:34:48;;;;;;;4.95;2.25;;;;;;;26.68;41.04;95369.69;5076488;28;20217;-77
2022/09/07 08:37:14;;;;;;;2.28;1.80;;;;;;;26.42;43.03;95373.94;5075653;28;20265;-74
2022/09/07 08:39:40;;;;;;;6.47;2.67;;;;;;;26.28;43.63;95367.72;5094066;28;20551;-74
2022/09/07 08:42:36;;;;;;;4.90;2.15;;;;;;;26.50;43.63;95362.44;5094926;28;20174;-74
2022/09/07 08:45:45;;;;;;;6.90;2.17;;;;;;;27.14;42.33;95357.19;5056451;28;20274;-77
2022/09/07 08:48:16;;;;;;;4.57;2.33;;;;;;;26.51;43.13;95358.66;5093749;28;20173;-76
2022/09/07 08:51:25;;;;;;;8.23;2.65;;;;;;;26.37;43.73;95349.75;5094342;28;20178;-76
2022/09/07 08:53:51;;;;;;;5.05;2.30;;;;;;;26.19;43.66;95355.97;4984118;28;20185;-78
2022/09/07 08:56:22;;;;;;;5.35;2.60;;;;;;;26.03;44.65;95341.16;4985014;28;20209;-78
2022/09/07 08:58:49;;;;;;;4.88;2.28;;;;;;;26.27;44.35;95344.53;5047865;28;20200;-76
2022/09/07 09:01:30;;;;;;;4.20;2.42;;;;;;;26.09;43.41;95329.97;5095250;28;20664;-77
2022/09/07 09:03:56;;;;;;;6.05;2.30;;;;;;;26.22;45.03;95328.38;5094125;28;20244;-73
2022/09/07 09:06:41;;;;;;;7.13;2.50;;;;;;;26.41;44.91;95331.84;5093589;28;20185;-73
2022/09/07 09:09:15;;;;;;;5.80;2.78;;;;;;;26.59;44.67;95340.94;5092866;28;20651;-73
2022/09/07 09:12:16;;;;;;;11.25;6.80;;;;;;;26.76;45.50;95333.03;5092742;28;20658;-74
2022/09/07 09:15:07;;;;;;;5.47;2.60;;;;;;;26.83;45.08;95324.53;5037576;28;20191;-73
2022/09/07 09:17:54;;;;;;;4.55;2.08;;;;;;;26.94;43.02;95321.34;5092972;28;20185;-74
2022/09/07 09:20:30;;;;;;;4.32;2.63;;;;;;;26.07;43.91;95323.25;5092966;28;20201;-73
2022/09/07 09:23:11;;;;;;;4.65;2.90;;;;;;;25.79;44.86;95322.38;5092957;28;20287;-74
2022/09/07 09:25:40;;;;;;;3.50;3.05;;;;;;;25.72;44.61;95316.56;5093501;28;20189;-75
2022/09/07 09:28:10;;;;;;;4.15;2.53;;;;;;;25.53;44.46;95319.25;5093650;28;20259;-74
2022/09/07 09:30:35;;;;;;;3.67;2.42;;;;;;;25.22;45.02;95301.94;5093637;28;20200;-73
2022/09/07 09:33:20;;;;;;;6.15;3.30;;;;;;;25.23;46.85;95306.22;5093394;28;20165;-73
2022/09/07 09:35:48;;;;;;;5.57;2.88;;;;;;;24.70;47.44;95274.06;5093212;28;20177;-76
2022/09/07 09:38:32;;;;;;;2.83;2.35;;;;;;;25.17;47.93;95300.91;5093305;28;20218;-73
2022/09/07 09:41:04;;;;;;;4.25;2.30;;;;;;;25.28;45.70;95300.75;5093034;28;20181;-74
2022/09/07 09:43:53;;;;;;;4.35;2.97;;;;;;;24.93;46.39;95299.34;5092762;28;20201;-74
2022/09/07 09:46:24;;;;;;;4.28;2.33;;;;;;;24.99;46.09;95299.03;5092307;28;20264;-74
2022/09/07 09:48:59;;;;;;;4.05;2.50;;;;;;;24.90;47.77;95300.72;5091990;28;20239;-73
2022/09/07 09:51:28;;;;;;;10.52;2.85;;;;;;;25.07;47.32;95297.56;5092570;28;20648;-73
2022/09/07 09:54:05;;;;;;;3.22;2.58;;;;;;;25.13;47.11;95288.31;5092656;28;20174;-73
2022/09/07 09:56:42;;;;;;;7.15;3.28;;;;;;;25.23;49.03;95290.88;5092975;28;20227;-73
2022/09/07 09:59:16;;;;;;;5.90;2.83;;;;;;;25.28;49.87;95281.88;5092359;28;20645;-74
2022/09/07 10:01:46;;;;;;;6.45;3.30;;;;;;;25.25;48.32;95285.19;5085368;28;20173;-73
2022/09/07 10:04:17;;;;;;;6.13;2.90;;;;;;;25.26;46.73;95284.88;5072251;28;20259;-73
2022/09/07 10:07:04;;;;;;;4.07;2.92;;;;;;;25.05;46.17;95286.28;5072325;28;20178;-73
2022/09/07 10:09:36;;;;;;;6.03;2.88;;;;;;;24.98;46.88;95278.56;5091812;28;20182;-74
2022/09/07 10:12:03;;;;;;;5.57;3.10;;;;;;;24.92;45.53;95278.91;5092447;28;20177;-75
2022/09/07 10:14:49;;;;;;;3.70;2.55;;;;;;;24.82;46.47;95271.75;5092486;28;20184;-73
2022/09/07 10:17:37;;;;;;;5.55;2.35;;;;;;;24.61;47.39;95260.44;5092648;28;20685;-74
2022/09/07 10:20:11;;;;;;;10.93;2.72;;;;;;;24.54;46.95;95264.56;5092705;28;20176;-74
2022/09/07 10:22:39;;;;;;;3.75;2.92;;;;;;;24.59;49.66;95261.78;5072827;28;20668;-74
2022/09/07 10:25:46;;;;;;;3.55;2.53;;;;;;;24.74;48.92;95256.19;5072062;28;20182;-74
2022/09/07 10:28:21;;;;;;;5.75;2.25;;;;;;;24.90;48.73;95252.25;5066833;28;20182;-74
2022/09/07 10:31:05;;;;;;;4.47;2.20;;;;;;;25.05;46.47;95254.75;5072044;28;20185;-73
2022/09/07 10:33:43;;;;;;;2.33;2.10;;;;;;;24.98;47.38;95246.22;5071799;28;20261;-74
2022/09/07 10:36:24;;;;;;;6.40;2.60;;;;;;;24.97;47.22;95239.22;5076807;28;20260;-74
2022/09/07 10:38:59;;;;;;;6.93;2.30;;;;;;;25.03;46.26;95245.34;5091845;28;20275;-73
2022/09/07 10:41:45;;;;;;;3.15;2.60;;;;;;;24.75;48.16;95244.34;5091690;28;20735;-74
2022/09/07 10:44:22;;;;;;;4.43;2.85;;;;;;;24.78;47.49;95236.50;5091689;28;20205;-74
2022/09/07 10:46:57;;;;;;;2.65;2.20;;;;;;;24.89;46.71;95242.56;5091851;28;20229;-73
2022/09/07 10:49:32;;;;;;;3.33;2.42;;;;;;;24.94;47.59;95234.41;5091829;28;20180;-74
2022/09/07 10:52:34;;;;;;;3.40;2.78;;;;;;;24.77;46.71;95234.09;5081587;28;20181;-73
2022/09/07 10:55:15;;;;;;;3.00;2.20;;;;;;;24.46;46.87;95235.59;5071250;28;20205;-74
2022/09/07 10:58:16;;;;;;;6.47;2.45;;;;;;;24.34;47.39;95214.47;5071243;28;20257;-74
2022/09/07 11:01:14;;;;;;;4.90;2.75;;;;;;;24.46;48.45;95225.63;5072985;28;20332;-74
2022/09/07 11:03:58;;;;;;;3.13;2.22;;;;;;;24.56;46.71;95224.69;5091649;28;20724;-74
2022/09/07 11:07:03;;;;;;;2.65;2.33;;;;;;;24.71;46.92;95216.41;5091704;28;20173;-74
2022/09/07 11:09:43;;;;;;;4.85;2.67;;;;;;;24.88;46.12;95215.91;5009479;28;20240;-74
2022/09/07 11:12:28;;;;;;;2.72;2.28;;;;;;;24.96;46.60;95216.06;5091662;28;20173;-75
2022/09/07 11:15:12;;;;;;;6.55;2.97;;;;;;;24.98;46.90;95215.78;5091554;28;21027;-73
2022/09/07 11:18:04;;;;;;;2.60;2.40;;;;;;;24.89;46.73;95221.00;5091338;28;20170;-74
2022/09/07 11:20:38;;;;;;;4.38;2.80;;;;;;;24.61;47.31;95189.63;5091648;28;20169;-74
2022/09/07 11:23:06;;;;;;;4.45;2.35;;;;;;;24.92;47.54;95200.75;5091090;28;20196;-74
2022/09/07 11:25:56;;;;;;;3.50;3.00;;;;;;;25.13;46.51;95205.56;5071991;28;20213;-74
2022/09/07 11:28:43;;;;;;;4.28;3.25;;;;;;;25.29;47.15;95199.94;5070790;28;20208;-74
2022/09/07 11:31:32;;;;;;;3.15;2.78;;;;;;;25.45;48.35;95201.25;5071017;28;20558;-73
2022/09/07 11:34:13;;;;;;;4.10;2.75;;;;;;;25.68;48.08;95191.47;5070456;28;20167;-73
2022/09/07 11:36:49;;;;;;;4.65;3.05;;;;;;;25.83;48.60;95194.69;5070769;28;20163;-74
2022/09/07 11:39:42;;;;;;;5.70;2.60;;;;;;;25.78;45.08;95196.66;5086990;28;20756;-74
2022/09/07 11:42:33;;;;;;;2.70;2.50;;;;;;;25.70;44.89;95194.66;5078187;28;20209;-75
2022/09/07 11:45:11;;;;;;;3.20;2.75;;;;;;;25.58;46.72;95192.44;5076240;28;20189;-74
2022/09/07 11:47:37;;;;;;;4.72;2.60;;;;;;;25.60;45.95;95194.88;5090681;28;20189;-74
2022/09/07 11:50:03;;;;;;;3.15;2.85;;;;;;;25.65;46.52;95189.38;5090766;28;20628;-74
2022/09/07 11:52:39;;;;;;;3.60;2.70;;;;;;;25.71;45.64;95188.97;5072907;28;20189;-74
2022/09/07 11:55:10;;;;;;;6.13;2.85;;;;;;;25.84;46.35;95195.50;5090538;28;20178;-73